createdAt,value
2018-08-07T00:00:44.383Z,23.8
2018-08-07T00:01:34.436Z,23.8
2018-08-07T00:02:24.975Z,23.8
2018-08-07T00:03:14.586Z,23.8
2018-08-07T00:04:04.664Z,23.8
2018-08-07T00:04:54.384Z,23.8
2018-08-07T00:05:44.967Z,23.8
2018-08-07T00:06:35.273Z,23.8
2018-08-07T00:07:25.071Z,23.8
2018-08-07T00:08:15.484Z,23.8
2018-08-07T00:09:05.002Z,23.8
2018-08-07T00:09:55.248Z,23.8
2018-08-07T00:10:45.096Z,23.8
2018-08-07T00:11:35.393Z,23.8
2018-08-07T00:12:25.435Z,23.8
2018-08-07T00:13:16.089Z,23.8
2018-08-07T00:14:05.884Z,23.8
2018-08-07T00:14:55.952Z,23.8
2018-08-07T00:15:46.188Z,23.8
2018-08-07T00:16:36.013Z,23.8
2018-08-07T00:17:26.076Z,23.8
2018-08-07T00:18:15.895Z,23.8
2018-08-07T00:19:06.200Z,23.8
2018-08-07T00:19:56.610Z,23.8
2018-08-07T00:20:46.658Z,23.8
2018-08-07T00:21:35.920Z,23.8
2018-08-07T00:22:26.275Z,23.8
2018-08-07T00:23:16.056Z,23.8
2018-08-07T00:24:06.343Z,23.8
2018-08-07T00:24:56.440Z,23.8
2018-08-07T00:25:46.445Z,23.8
2018-08-07T00:26:37.097Z,23.8
2018-08-07T00:27:26.907Z,23.9
2018-08-07T00:28:17.610Z,23.9
2018-08-07T00:29:07.010Z,23.9
2018-08-07T00:29:56.807Z,23.8
2018-08-07T00:30:46.838Z,23.9
2018-08-07T00:31:37.823Z,23.9
2018-08-07T00:32:27.248Z,23.9
2018-08-07T00:33:17.319Z,23.9
2018-08-07T00:34:07.969Z,23.8
2018-08-07T00:34:57.233Z,23.9
2018-08-07T00:35:47.856Z,23.9
2018-08-07T00:36:37.345Z,23.9
2018-08-07T00:37:27.128Z,23.9
2018-08-07T00:38:17.746Z,23.9
2018-08-07T00:39:08.345Z,23.9
2018-08-07T00:39:58.127Z,23.9
2018-08-07T00:40:48.257Z,23.9
2018-08-07T00:41:38.341Z,23.9
2018-08-07T00:42:27.161Z,23.9
2018-08-07T00:43:18.387Z,23.9
2018-08-07T00:44:08.220Z,23.9
2018-08-07T00:44:58.250Z,23.9
2018-08-07T00:45:48.056Z,23.9
2018-08-07T00:46:38.148Z,23.9
2018-08-07T00:47:27.860Z,23.9
2018-08-07T00:48:18.244Z,23.9
2018-08-07T00:49:07.969Z,23.9
2018-08-07T00:49:58.350Z,23.9
2018-08-07T00:50:48.423Z,23.9
2018-08-07T00:51:38.791Z,23.9
2018-08-07T00:52:28.492Z,23.9
2018-08-07T00:53:18.310Z,23.9
2018-08-07T00:54:08.953Z,23.9
2018-08-07T00:54:58.496Z,23.9
2018-08-07T00:55:48.811Z,23.9
2018-08-07T00:56:38.574Z,23.9
2018-08-07T00:57:28.655Z,23.9
2018-08-07T00:58:19.567Z,23.9
2018-08-07T00:59:08.748Z,23.9
2018-08-07T00:59:57.729Z,23.9
2018-08-07T01:00:48.600Z,23.9
2018-08-07T01:01:39.312Z,23.9
2018-08-07T01:02:28.743Z,23.9
2018-08-07T01:03:19.671Z,23.9
2018-08-07T01:04:09.461Z,23.9
2018-08-07T01:04:59.766Z,23.9
2018-08-07T01:05:48.965Z,23.9
2018-08-07T01:06:39.930Z,23.9
2018-08-07T01:07:30.088Z,23.9
2018-08-07T01:08:20.036Z,23.9
2018-08-07T01:09:09.817Z,23.9
2018-08-07T01:10:00.177Z,23.9
2018-08-07T01:10:50.513Z,23.9
2018-08-07T01:11:40.584Z,23.9
2018-08-07T01:12:30.546Z,23.9
2018-08-07T01:13:20.139Z,23.9
2018-08-07T01:14:11.072Z,23.9
2018-08-07T01:15:00.842Z,23.9
2018-08-07T01:15:50.915Z,23.9
2018-08-07T01:16:41.258Z,23.9
2018-08-07T01:17:31.329Z,23.9
2018-08-07T01:18:20.490Z,23.9
2018-08-07T01:19:10.594Z,23.9
2018-08-07T01:19:59.896Z,23.9
2018-08-07T01:20:51.322Z,23.9
2018-08-07T01:21:41.334Z,23.9
2018-08-07T01:22:31.404Z,23.9
2018-08-07T01:23:21.524Z,23.9
2018-08-07T01:24:11.280Z,23.9
2018-08-07T01:25:01.283Z,23.9
2018-08-07T01:25:50.539Z,23.9
2018-08-07T01:26:41.734Z,23.9
2018-08-07T01:27:31.833Z,23.9
2018-08-07T01:28:21.588Z,23.9
2018-08-07T01:29:11.637Z,23.9
2018-08-07T01:30:01.806Z,23.9
2018-08-07T01:30:51.578Z,23.9
2018-08-07T01:31:42.364Z,23.9
2018-08-07T01:32:31.654Z,23.9
2018-08-07T01:33:22.566Z,23.9
2018-08-07T01:34:11.721Z,23.9
2018-08-07T01:35:02.409Z,23.9
2018-08-07T01:35:52.483Z,23.9
2018-08-07T01:36:42.786Z,23.9
2018-08-07T01:37:32.824Z,23.9
2018-08-07T01:38:22.059Z,23.9
2018-08-07T01:39:12.667Z,23.9
2018-08-07T01:40:02.764Z,23.9
2018-08-07T01:40:52.832Z,24
2018-08-07T01:41:42.928Z,23.9
2018-08-07T01:42:32.449Z,23.9
2018-08-07T01:43:23.085Z,23.9
2018-08-07T01:44:12.551Z,23.9
2018-08-07T01:45:02.852Z,23.9
2018-08-07T01:45:53.202Z,23.9
2018-08-07T01:46:43.247Z,24
2018-08-07T01:47:33.038Z,24
2018-08-07T01:48:23.153Z,23.9
2018-08-07T01:49:13.457Z,24
2018-08-07T01:50:02.957Z,24
2018-08-07T01:50:53.254Z,24
2018-08-07T01:51:43.599Z,24
2018-08-07T01:52:33.102Z,24
2018-08-07T01:53:23.711Z,23.9
2018-08-07T01:54:14.122Z,24
2018-08-07T01:55:03.613Z,24
2018-08-07T01:55:53.442Z,24
2018-08-07T01:56:43.705Z,23.9
2018-08-07T01:57:34.364Z,24
2018-08-07T01:58:23.955Z,24
2018-08-07T01:59:13.716Z,23.9
2018-08-07T02:00:03.529Z,23.9
2018-08-07T05:07:06.067Z,23.3
2018-08-07T05:07:55.759Z,23.3
2018-08-07T05:08:45.775Z,23.3
2018-08-07T05:09:35.832Z,23.3
2018-08-07T05:10:26.236Z,23.3
2018-08-07T05:11:16.352Z,23.3
2018-08-07T05:12:06.629Z,23.3
2018-08-07T05:12:56.407Z,23.3
2018-08-07T05:13:46.358Z,23.3
2018-08-07T05:14:36.461Z,23.3
2018-08-07T05:15:25.679Z,23.3
2018-08-07T05:16:16.915Z,23.3
2018-08-07T05:17:07.020Z,23.3
2018-08-07T05:17:56.431Z,23.3
2018-08-07T05:18:46.303Z,23.3
2018-08-07T05:19:36.923Z,23.3
2018-08-07T05:20:26.986Z,23.3
2018-08-07T05:21:17.011Z,23.3
2018-08-07T05:22:06.538Z,23.3
2018-08-07T05:22:56.835Z,23.3
2018-08-07T05:23:46.403Z,23.3
2018-08-07T05:24:36.981Z,23.3
2018-08-07T05:25:27.295Z,23.3
2018-08-07T05:26:17.097Z,23.3
2018-08-07T05:27:07.025Z,23.3
2018-08-07T05:27:56.702Z,23.3
2018-08-07T05:28:48.832Z,23.3
2018-08-07T05:29:37.407Z,23.3
2018-08-07T05:30:27.419Z,23.3
2018-08-07T05:31:16.988Z,23.3
2018-08-07T05:32:07.058Z,23.3
2018-08-07T05:32:58.164Z,23.3
2018-08-07T05:33:47.210Z,23.3
2018-08-07T05:34:38.357Z,23.3
2018-08-07T05:35:28.075Z,23.3
2018-08-07T05:36:17.602Z,23.3
2018-08-07T05:37:07.972Z,23.3
2018-08-07T05:37:58.562Z,23.3
2018-08-07T05:38:48.062Z,23.4
2018-08-07T05:39:38.331Z,23.3
2018-08-07T05:40:43.066Z,23.3
2018-08-07T05:41:17.801Z,23.3
2018-08-07T05:42:08.390Z,23.3
2018-08-07T05:42:59.219Z,23.3
2018-08-07T05:43:48.821Z,23.3
2018-08-07T05:44:38.288Z,23.3
2018-08-07T05:45:28.280Z,23.3
2018-08-07T05:46:18.620Z,23.3
2018-08-07T05:47:08.999Z,23.3
2018-08-07T05:47:59.029Z,23.4
2018-08-07T05:48:48.615Z,23.3
2018-08-07T05:49:39.418Z,23.4
2018-08-07T05:50:32.707Z,23.4
2018-08-07T05:51:24.705Z,23.3
2018-08-07T05:52:09.360Z,23.4
2018-08-07T05:52:59.393Z,23.4
2018-08-07T05:53:50.021Z,23.4
2018-08-07T05:54:39.818Z,23.4
2018-08-07T05:55:29.888Z,23.4
2018-08-07T05:56:19.446Z,23.4
2018-08-07T05:57:09.221Z,23.4
2018-08-07T05:58:00.721Z,23.4
2018-08-07T05:59:03.791Z,23.4
2018-08-07T05:59:40.244Z,23.4
2018-08-07T06:00:29.503Z,23.4
2018-08-07T06:01:19.245Z,23.4
2018-08-07T06:02:10.506Z,23.4
2018-08-07T06:02:59.885Z,23.4
2018-08-07T06:03:49.515Z,23.4
2018-08-07T06:04:40.222Z,23.4
2018-08-07T06:05:30.370Z,23.4
2018-08-07T06:06:19.919Z,23.4
2018-08-07T06:07:10.246Z,23.4
2018-08-07T06:08:00.881Z,23.4
2018-08-07T06:09:05.608Z,23.4
2018-08-07T06:09:39.353Z,23.4
2018-08-07T06:10:29.946Z,23.4
2018-08-07T06:11:20.573Z,23.4
2018-08-07T06:12:10.908Z,23.4
2018-08-07T06:13:01.224Z,23.4
2018-08-07T06:13:50.283Z,23.4
2018-08-07T06:14:40.659Z,23.4
2018-08-07T06:15:30.975Z,23.5
2018-08-07T06:16:20.198Z,23.4
2018-08-07T06:17:11.148Z,23.5
2018-08-07T06:18:01.124Z,23.4
2018-08-07T06:18:50.416Z,23.5
2018-08-07T06:19:41.785Z,23.5
2018-08-07T06:20:31.595Z,23.5
2018-08-07T06:21:21.612Z,23.5
2018-08-07T06:22:12.355Z,23.5
2018-08-07T06:23:01.706Z,23.5
2018-08-07T06:23:51.846Z,23.5
2018-08-07T06:24:41.839Z,23.5
2018-08-07T06:25:32.271Z,23.5
2018-08-07T06:26:21.962Z,23.5
2018-08-07T06:27:11.829Z,23.5
2018-08-07T06:28:01.662Z,23.5
2018-08-07T06:28:51.458Z,23.5
2018-08-07T06:29:41.818Z,23.5
2018-08-07T06:30:30.464Z,23.5
2018-08-07T06:31:22.299Z,23.5
2018-08-07T06:32:11.974Z,23.5
2018-08-07T06:33:01.096Z,23.6
2018-08-07T06:33:51.950Z,23.5
2018-08-07T06:34:42.314Z,23.6
2018-08-07T06:35:31.647Z,23.6
2018-08-07T06:36:20.982Z,23.6
2018-08-07T06:37:12.282Z,23.6
2018-08-07T06:38:02.631Z,23.6
2018-08-07T06:38:52.729Z,23.6
2018-08-07T06:39:43.120Z,23.6
2018-08-07T06:40:32.334Z,23.6
2018-08-07T06:41:23.208Z,23.6
2018-08-07T06:42:12.986Z,23.6
2018-08-07T06:43:05.205Z,23.6
2018-08-07T06:43:53.737Z,23.6
2018-08-07T06:44:43.459Z,23.6
2018-08-07T06:45:33.482Z,23.6
2018-08-07T06:46:23.564Z,23.6
2018-08-07T06:47:12.792Z,23.6
2018-08-07T06:48:04.586Z,23.6
2018-08-07T06:48:54.009Z,23.6
2018-08-07T06:49:43.800Z,23.6
2018-08-07T06:50:33.611Z,23.6
2018-08-07T06:51:23.619Z,23.6
2018-08-07T06:52:13.988Z,23.6
2018-08-07T06:53:03.867Z,23.6
2018-08-07T06:54:08.317Z,23.6
2018-08-07T06:54:43.638Z,23.6
2018-08-07T06:55:34.273Z,23.6
2018-08-07T06:56:24.110Z,23.6
2018-08-07T06:57:15.161Z,23.6
2018-08-07T06:58:04.768Z,23.6
2018-08-07T06:58:54.291Z,23.6
2018-08-07T06:59:44.885Z,23.6
2018-08-07T07:00:34.939Z,23.6
2018-08-07T07:01:24.971Z,23.6
2018-08-07T07:02:14.830Z,23.6
2018-08-07T07:03:05.244Z,23.7
2018-08-07T07:03:54.711Z,23.6
2018-08-07T07:04:44.765Z,23.6
2018-08-07T07:05:34.865Z,23.6
2018-08-07T07:06:25.808Z,23.6
2018-08-07T07:07:15.183Z,23.7
2018-08-07T07:08:04.170Z,23.7
2018-08-07T07:08:55.096Z,23.6
2018-08-07T07:09:45.227Z,23.6
2018-08-07T07:10:34.976Z,23.6
2018-08-07T07:11:25.585Z,23.6
2018-08-07T07:12:15.601Z,23.7
2018-08-07T07:13:05.386Z,23.7
2018-08-07T07:13:55.469Z,23.7
2018-08-07T07:14:45.066Z,23.7
2018-08-07T07:15:34.729Z,23.7
2018-08-07T07:16:25.937Z,23.7
2018-08-07T07:17:15.415Z,23.7
2018-08-07T07:18:05.754Z,23.7
2018-08-07T07:18:54.539Z,23.7
2018-08-07T07:19:44.955Z,23.7
2018-08-07T07:20:35.269Z,23.7
2018-08-07T07:21:25.758Z,23.7
2018-08-07T07:22:15.575Z,23.7
2018-08-07T07:23:05.679Z,23.7
2018-08-07T07:23:56.216Z,23.7
2018-08-07T07:24:46.363Z,23.8
2018-08-07T07:25:36.216Z,23.7
2018-08-07T07:26:26.468Z,23.8
2018-08-07T07:27:16.451Z,23.8
2018-08-07T07:28:06.258Z,23.7
2018-08-07T07:28:56.866Z,23.8
2018-08-07T07:29:46.743Z,23.8
2018-08-07T07:30:37.238Z,23.8
2018-08-07T07:31:26.562Z,23.7
2018-08-07T07:32:17.383Z,23.8
2018-08-07T07:33:07.425Z,23.7
2018-08-07T07:33:56.975Z,23.8
2018-08-07T07:34:48.630Z,23.8
2018-08-07T07:35:37.691Z,23.8
2018-08-07T07:36:26.954Z,23.8
2018-08-07T07:37:17.807Z,23.8
2018-08-07T07:38:07.580Z,23.8
2018-08-07T07:38:57.923Z,23.8
2018-08-07T07:39:47.188Z,23.8
2018-08-07T07:40:37.741Z,23.8
2018-08-07T07:41:27.642Z,23.8
2018-08-07T07:42:17.707Z,23.8
2018-08-07T07:43:07.709Z,23.8
2018-08-07T07:43:56.737Z,23.8
2018-08-07T07:44:47.884Z,23.8
2018-08-07T07:45:38.239Z,23.8
2018-08-07T07:46:28.247Z,23.8
2018-08-07T07:48:07.603Z,23.8
2018-08-07T07:48:58.166Z,23.8
2018-08-07T07:49:48.812Z,23.8
2018-08-07T07:50:38.890Z,23.8
2018-08-07T07:51:28.070Z,23.8
2018-08-07T07:52:18.911Z,23.8
2018-08-07T07:53:23.428Z,23.8
2018-08-07T07:53:59.680Z,23.8
2018-08-07T07:54:48.899Z,23.8
2018-08-07T07:55:38.399Z,23.8
2018-08-07T07:56:29.288Z,23.8
2018-08-07T07:57:19.308Z,23.8
2018-08-07T07:58:09.024Z,23.8
2018-08-07T07:58:59.418Z,23.8
2018-08-07T07:59:48.966Z,23.8
2018-08-07T08:00:38.803Z,23.8
2018-08-07T08:01:29.679Z,23.8
2018-08-07T08:02:19.725Z,23.8
2018-08-07T08:03:09.827Z,23.8
2018-08-07T08:03:59.037Z,23.8
2018-08-07T08:04:49.662Z,23.8
2018-08-07T08:05:40.913Z,23.8
2018-08-07T08:06:29.785Z,23.8
2018-08-07T08:07:19.694Z,23.8
2018-08-07T08:08:09.641Z,23.8
2018-08-07T08:08:59.971Z,23.9
2018-08-07T08:09:50.271Z,23.8
2018-08-07T08:10:39.593Z,23.8
2018-08-07T08:11:29.909Z,23.8
2018-08-07T08:12:20.249Z,23.8
2018-08-07T08:13:10.622Z,23.9
2018-08-07T08:14:00.649Z,23.9
2018-08-07T08:14:50.459Z,23.8
2018-08-07T08:15:40.861Z,23.8
2018-08-07T08:16:30.593Z,23.8
2018-08-07T08:17:20.649Z,23.8
2018-08-07T08:18:09.292Z,23.8
2018-08-07T08:19:00.771Z,23.9
2018-08-07T08:19:50.104Z,23.8
2018-08-07T08:20:40.692Z,23.8
2018-08-07T08:21:30.395Z,23.9
2018-08-07T08:22:21.346Z,23.9
2018-08-07T08:23:11.090Z,23.9
2018-08-07T08:24:00.884Z,23.8
2018-08-07T08:24:51.208Z,23.9
2018-08-07T08:25:41.614Z,23.9
2018-08-07T08:26:31.373Z,23.9
2018-08-07T08:27:21.216Z,23.9
2018-08-07T08:28:10.492Z,23.9
2018-08-07T08:29:02.172Z,23.9
2018-08-07T08:29:53.176Z,23.9
2018-08-07T08:30:40.585Z,23.9
2018-08-07T08:31:32.014Z,23.9
2018-08-07T08:32:21.610Z,23.9
2018-08-07T08:33:11.301Z,23.9
2018-08-07T08:34:02.188Z,23.9
2018-08-07T08:34:52.131Z,23.9
2018-08-07T08:35:42.818Z,23.9
2018-08-07T08:36:32.389Z,23.9
2018-08-07T08:37:22.119Z,23.9
2018-08-07T08:38:12.522Z,23.9
2018-08-07T08:39:02.623Z,23.9
2018-08-07T08:39:52.409Z,23.9
2018-08-07T08:40:41.701Z,23.9
2018-08-07T08:41:31.720Z,23.9
2018-08-07T08:42:22.904Z,23.9
2018-08-07T08:43:12.372Z,23.9
2018-08-07T08:44:02.415Z,23.9
2018-08-07T08:44:52.571Z,23.9
2018-08-07T08:45:42.871Z,23.9
2018-08-07T08:46:33.199Z,23.9
2018-08-07T08:47:22.669Z,23.9
2018-08-07T08:48:12.948Z,23.9
2018-08-07T08:49:02.859Z,23.9
2018-08-07T08:49:51.893Z,23.9
2018-08-07T08:50:42.413Z,23.9
2018-08-07T08:51:32.780Z,23.9
2018-08-07T08:52:23.377Z,23.9
2018-08-07T08:53:13.442Z,23.9
2018-08-07T08:54:04.026Z,23.9
2018-08-07T08:54:53.319Z,23.9
2018-08-07T08:55:43.169Z,23.9
2018-08-07T08:56:33.449Z,23.9
2018-08-07T08:57:24.084Z,23.9
2018-08-07T08:58:13.577Z,23.9
2018-08-07T08:59:03.436Z,23.9
2018-08-07T08:59:53.959Z,23.9
2018-08-07T09:00:43.220Z,23.9
2018-08-07T09:01:33.089Z,23.9
2018-08-07T09:02:24.458Z,23.9
2018-08-07T09:03:13.721Z,23.9
2018-08-07T09:04:04.321Z,23.9
2018-08-07T09:21:28.826Z,23.9
2018-08-07T09:22:19.178Z,23.9
2018-08-07T09:23:09.833Z,23.9
2018-08-07T09:23:59.280Z,23.9
2018-08-07T09:24:49.859Z,23.9
2018-08-07T09:25:43.237Z,23.9
2018-08-07T09:26:29.766Z,23.9
2018-08-07T09:27:19.512Z,23.9
2018-08-07T09:28:10.114Z,23.9
2018-08-07T09:28:59.991Z,23.9
2018-08-07T09:29:49.971Z,23.9
2018-08-07T09:30:39.844Z,23.9
2018-08-07T09:31:30.046Z,23.9
2018-08-07T09:32:20.215Z,23.9
2018-08-07T09:33:10.609Z,24
2018-08-07T09:34:00.323Z,24
2018-08-07T09:34:50.688Z,24
2018-08-07T09:35:40.209Z,23.9
2018-08-07T09:36:30.818Z,24
2018-08-07T09:37:20.650Z,24
2018-08-07T09:38:10.955Z,24
2018-08-07T09:39:01.079Z,24
2018-08-07T09:39:51.272Z,24
2018-08-07T09:40:40.658Z,24
2018-08-07T09:41:30.401Z,24
2018-08-07T09:42:21.293Z,24
2018-08-07T09:43:11.086Z,24
2018-08-07T09:44:01.192Z,24
2018-08-07T09:44:51.305Z,24
2018-08-07T09:45:41.293Z,23.9
2018-08-07T09:46:32.199Z,24
2018-08-07T09:47:20.909Z,24
2018-08-07T09:48:11.761Z,24
2018-08-07T09:49:01.528Z,24
2018-08-07T09:49:53.349Z,24
2018-08-07T09:50:41.398Z,24
2018-08-07T09:51:31.739Z,24
2018-08-07T09:52:22.856Z,24
2018-08-07T09:53:11.276Z,24
2018-08-07T09:54:02.146Z,24
2018-08-07T09:54:51.959Z,24
2018-08-07T09:55:41.737Z,24
2018-08-07T09:56:32.074Z,24
2018-08-07T09:57:21.839Z,24
2018-08-07T09:58:12.042Z,24
2018-08-07T09:59:01.745Z,24
2018-08-07T09:59:52.056Z,24
2018-08-07T10:00:42.193Z,24
2018-08-07T10:01:31.943Z,24
2018-08-07T10:02:22.822Z,24
2018-08-07T10:03:12.640Z,24
2018-08-07T10:04:02.388Z,24
2018-08-07T10:04:52.210Z,24
2018-08-07T10:05:43.301Z,24
2018-08-07T10:06:32.905Z,24
2018-08-07T10:07:22.997Z,24
2018-08-07T10:08:12.744Z,24
2018-08-07T10:09:02.234Z,24
2018-08-07T10:09:52.849Z,24.1
2018-08-07T10:10:42.976Z,24
2018-08-07T10:11:32.977Z,24
2018-08-07T10:12:23.773Z,24
2018-08-07T10:13:13.730Z,24
2018-08-07T10:14:03.184Z,24
2018-08-07T10:14:53.270Z,24
2018-08-07T10:15:43.567Z,24
2018-08-07T10:16:33.992Z,24
2018-08-07T10:17:23.792Z,24
2018-08-07T10:18:13.557Z,24
2018-08-07T10:19:04.142Z,24
2018-08-07T10:19:53.398Z,24.1
2018-08-07T10:20:43.722Z,24
2018-08-07T10:21:34.064Z,24.1
2018-08-07T10:22:23.600Z,24.1
2018-08-07T10:23:15.050Z,24.1
2018-08-07T10:24:03.937Z,24
2018-08-07T10:24:54.294Z,24.1
2018-08-07T10:25:44.649Z,24.1
2018-08-07T10:26:34.121Z,24.1
2018-08-07T10:27:25.032Z,24.1
2018-08-07T10:28:14.037Z,24
2018-08-07T10:29:04.596Z,24.1
2018-08-07T10:29:54.747Z,24.1
2018-08-07T10:30:44.739Z,24.1
2018-08-07T10:31:35.044Z,24
2018-08-07T10:32:24.431Z,24.1
2018-08-07T10:33:14.511Z,24
2018-08-07T10:34:05.048Z,24.1
2018-08-07T10:34:55.507Z,24.1
2018-08-07T10:35:45.156Z,24.1
2018-08-07T10:36:34.955Z,24.1
2018-08-07T10:37:25.286Z,24.1
2018-08-07T10:38:15.131Z,24.1
2018-08-07T10:39:05.159Z,24.1
2018-08-07T10:39:55.581Z,24.1
2018-08-07T10:40:47.395Z,24.1
2018-08-07T10:41:34.816Z,24.1
2018-08-07T10:42:25.431Z,24.1
2018-08-07T10:43:18.761Z,24.1
2018-08-07T10:44:06.302Z,24.1
2018-08-07T10:44:54.780Z,24.1
2018-08-07T10:45:45.654Z,24.1
2018-08-07T10:46:36.856Z,24.1
2018-08-07T10:47:25.231Z,24.1
2018-08-07T10:48:16.449Z,24.1
2018-08-07T10:49:05.974Z,24.1
2018-08-07T10:49:56.027Z,24
2018-08-07T10:50:45.953Z,24.1
2018-08-07T10:51:35.842Z,24.1
2018-08-07T10:52:27.351Z,24.1
2018-08-07T10:53:15.724Z,24.1
2018-08-07T10:54:06.881Z,24.1
2018-08-07T10:54:56.394Z,24.1
2018-08-07T10:55:46.182Z,24.1
2018-08-07T10:56:38.608Z,24.1
2018-08-07T10:57:26.707Z,24.1
2018-08-07T10:58:17.769Z,24.1
2018-08-07T10:59:07.539Z,24.1
2018-08-07T10:59:56.533Z,24.1
2018-08-07T11:00:46.533Z,24.1
2018-08-07T11:01:36.946Z,24.1
2018-08-07T11:02:27.532Z,24.1
2018-08-07T11:03:16.777Z,24.1
2018-08-07T11:04:07.485Z,24.1
2018-08-07T11:04:57.444Z,24.1
2018-08-07T11:05:48.882Z,24.1
2018-08-07T11:06:37.346Z,24.1
2018-08-07T11:07:27.350Z,24.1
2018-08-07T11:08:17.666Z,24.1
2018-08-07T11:09:07.217Z,24.1
2018-08-07T11:09:58.146Z,24.1
2018-08-07T11:10:47.626Z,24.1
2018-08-07T11:11:37.960Z,24.1
2018-08-07T11:12:28.306Z,24.1
2018-08-07T11:13:18.158Z,24.1
2018-08-07T11:14:07.879Z,24.1
2018-08-07T11:14:58.545Z,24.1
2018-08-07T11:15:48.035Z,24.1
2018-08-07T11:16:38.065Z,24.1
2018-08-07T11:17:28.445Z,24.1
2018-08-07T11:18:17.701Z,24.1
2018-08-07T11:19:08.287Z,24.1
2018-08-07T11:19:58.658Z,24.1
2018-08-07T11:20:48.448Z,24.1
2018-08-07T11:21:38.549Z,24.1
2018-08-07T11:22:28.273Z,24.1
2018-08-07T11:23:18.371Z,24.1
2018-08-07T11:24:08.683Z,24.1
2018-08-07T11:24:59.175Z,24.1
2018-08-07T11:25:48.838Z,24.1
2018-08-07T11:26:39.177Z,24.1
2018-08-07T11:27:29.260Z,24.1
2018-08-07T11:28:18.754Z,24.1
2018-08-07T11:29:09.387Z,24.1
2018-08-07T11:30:00.509Z,24.1
2018-08-07T11:30:49.240Z,24.1
2018-08-07T11:31:39.625Z,24.1
2018-08-07T11:32:29.630Z,24.1
2018-08-07T11:33:19.137Z,24.1
2018-08-07T11:34:10.085Z,24.1
2018-08-07T11:34:59.843Z,24.1
2018-08-07T11:35:49.687Z,24.1
2018-08-07T11:36:39.936Z,24.1
2018-08-07T11:37:28.974Z,24.1
2018-08-07T11:38:19.637Z,24.1
2018-08-07T11:39:10.227Z,24.1
2018-08-07T11:40:00.310Z,24.1
2018-08-07T11:40:50.306Z,24.1
2018-08-07T11:41:40.084Z,24.1
2018-08-07T11:42:30.109Z,24.1
2018-08-07T11:43:20.388Z,24.1
2018-08-07T11:44:10.327Z,24.1
2018-08-07T11:45:00.649Z,24.1
2018-08-07T11:45:50.696Z,24.1
2018-08-07T11:46:39.589Z,24.1
2018-08-07T11:47:30.493Z,24.1
2018-08-07T11:48:21.644Z,24.1
2018-08-07T11:49:11.153Z,24.1
2018-08-07T11:50:01.214Z,24.1
2018-08-07T11:50:51.141Z,24.1
2018-08-07T11:51:41.279Z,24.1
2018-08-07T11:52:31.828Z,24.1
2018-08-07T11:53:21.671Z,24.1
2018-08-07T11:54:11.556Z,24.1
2018-08-07T11:55:00.805Z,24.1
2018-08-07T11:55:51.708Z,24.1
2018-08-07T11:56:41.509Z,24.1
2018-08-07T11:57:30.771Z,24.1
2018-08-07T11:58:21.830Z,24.1
2018-08-07T11:59:11.891Z,24.1
2018-08-07T12:00:01.613Z,24.1
2018-08-07T12:00:51.841Z,24.1
2018-08-07T12:01:42.203Z,24.1
2018-08-07T12:02:32.096Z,24.1
2018-08-07T12:03:22.048Z,24.1
2018-08-07T12:04:12.181Z,24.1
2018-08-07T12:05:02.428Z,24.1
2018-08-07T12:05:52.523Z,24.1
2018-08-07T12:06:42.540Z,24.1
2018-08-07T12:07:32.660Z,24.1
2018-08-07T12:08:21.142Z,24.1
2018-08-07T12:09:11.655Z,24.1
2018-08-07T12:10:02.598Z,24.1
2018-08-07T12:10:52.618Z,24.1
2018-08-07T12:11:42.973Z,24.1
2018-08-07T12:12:32.743Z,24.1
2018-08-07T12:13:21.695Z,24.1
2018-08-07T12:14:12.950Z,24.1
2018-08-07T12:15:02.950Z,24.1
2018-08-07T12:15:52.205Z,24.1
2018-08-07T12:16:42.834Z,24.1
2018-08-07T12:17:33.107Z,24.1
2018-08-07T12:18:23.424Z,24.1
2018-08-07T12:19:12.689Z,24.1
2018-08-07T12:20:03.313Z,24.1
2018-08-07T12:20:53.358Z,24.1
2018-08-07T12:21:44.356Z,24.1
2018-08-07T12:22:33.827Z,24.1
2018-08-07T12:23:23.601Z,24.1
2018-08-07T12:24:12.871Z,24.1
2018-08-07T12:25:03.957Z,24.1
2018-08-07T12:25:53.797Z,24.1
2018-08-07T12:26:43.791Z,24.1
2018-08-07T12:27:34.234Z,24.1
2018-08-07T12:28:24.238Z,24.2
2018-08-07T12:29:13.735Z,24.1
2018-08-07T12:30:04.124Z,24.2
2018-08-07T12:30:53.647Z,24.2
2018-08-07T12:31:58.946Z,24.1
2018-08-07T12:32:34.085Z,24.2
2018-08-07T12:33:24.394Z,24.1
2018-08-07T12:34:14.734Z,24.2
2018-08-07T12:35:05.325Z,24.1
2018-08-07T12:35:53.841Z,24.1
2018-08-07T12:36:44.116Z,24.1
2018-08-07T12:37:34.154Z,24.1
2018-08-07T12:38:24.518Z,24.2
2018-08-07T12:39:15.101Z,24.2
2018-08-07T12:40:04.915Z,24.2
2018-08-07T12:40:53.913Z,24.2
2018-08-07T12:41:45.352Z,24.1
2018-08-07T12:42:35.183Z,24.2
2018-08-07T12:43:25.258Z,24.2
2018-08-07T12:44:14.453Z,24.2
2018-08-07T12:45:05.323Z,24.2
2018-08-07T12:45:54.838Z,24.2
2018-08-07T12:46:46.683Z,24.2
2018-08-07T12:47:35.767Z,24.2
2018-08-07T12:48:25.556Z,24.1
2018-08-07T12:49:15.603Z,24.2
2018-08-07T12:50:05.732Z,24.2
2018-08-07T12:50:55.815Z,24.1
2018-08-07T12:51:46.501Z,24.2
2018-08-07T12:52:36.153Z,24.2
2018-08-07T12:53:27.348Z,24.2
2018-08-07T12:54:15.976Z,24.2
2018-08-07T12:55:05.310Z,24.2
2018-08-07T12:55:56.391Z,24.2
2018-08-07T12:56:45.893Z,24.2
2018-08-07T12:57:36.597Z,24.2
2018-08-07T12:58:26.355Z,24.2
2018-08-07T12:59:15.298Z,24.2
2018-08-07T13:00:06.528Z,24.2
2018-08-07T13:00:56.306Z,24.2
2018-08-07T13:01:46.626Z,24.2
2018-08-07T13:02:35.889Z,24.2
2018-08-07T13:03:26.746Z,24.2
2018-08-07T13:04:17.036Z,24.2
2018-08-07T13:05:06.419Z,24.2
2018-08-07T13:05:56.975Z,24.2
2018-08-07T13:06:47.714Z,24.2
2018-08-07T13:07:37.390Z,24.2
2018-08-07T13:08:26.324Z,24.2
2018-08-07T13:09:16.941Z,24.2
2018-08-07T13:10:06.169Z,24.2
2018-08-07T13:10:57.600Z,24.2
2018-08-07T13:11:47.431Z,24.2
2018-08-07T13:12:37.749Z,24.2
2018-08-07T13:13:27.508Z,24.2
2018-08-07T13:14:17.891Z,24.2
2018-08-07T13:15:07.390Z,24.2
2018-08-07T13:15:57.475Z,24.2
2018-08-07T13:16:47.328Z,24.2
2018-08-07T13:17:38.925Z,24.2
2018-08-07T13:18:27.373Z,24.2
2018-08-07T13:19:18.280Z,24.2
2018-08-07T13:20:07.511Z,24.2
2018-08-07T13:20:57.581Z,24.2
2018-08-07T13:21:48.475Z,24.2
2018-08-07T13:22:38.298Z,24.2
2018-08-07T13:23:27.525Z,24.2
2018-08-07T13:24:17.569Z,24.2
2018-08-07T13:25:07.937Z,24.2
2018-08-07T13:25:59.563Z,24.2
2018-08-07T13:26:48.883Z,24.2
2018-08-07T13:27:38.377Z,24.2
2018-08-07T13:28:29.025Z,24.2
2018-08-07T13:29:17.901Z,24.2
2018-08-07T13:30:08.260Z,24.2
2018-08-07T13:30:58.080Z,24.2
2018-08-07T13:31:48.638Z,24.2
2018-08-07T13:32:38.752Z,24.2
2018-08-07T13:33:29.265Z,24.2
2018-08-07T13:34:18.927Z,24.3
2018-08-07T13:35:08.720Z,24.3
2018-08-07T13:35:58.480Z,24.2
2018-08-07T13:36:48.734Z,24.3
2018-08-07T13:37:39.573Z,24.3
2018-08-07T13:38:29.075Z,24.2
2018-08-07T13:39:18.881Z,24.3
2018-08-07T13:40:09.450Z,24.3
2018-08-07T13:41:00.181Z,24.2
2018-08-07T13:41:49.269Z,24.3
2018-08-07T13:42:39.951Z,24.3
2018-08-07T13:43:29.607Z,24.3
2018-08-07T13:44:19.954Z,24.3
2018-08-07T13:45:10.288Z,24.3
2018-08-07T13:46:00.402Z,24.3
2018-08-07T13:46:50.150Z,24.3
2018-08-07T13:47:40.438Z,24.3
2018-08-07T13:48:30.581Z,24.3
2018-08-07T13:49:20.308Z,24.2
2018-08-07T13:50:10.643Z,24.3
2018-08-07T13:51:00.410Z,24.3
2018-08-07T13:51:49.688Z,24.3
2018-08-07T13:52:40.878Z,24.2
2018-08-07T13:53:30.915Z,24.2
2018-08-07T13:54:20.968Z,24.3
2018-08-07T13:55:10.517Z,24.3
2018-08-07T13:56:03.025Z,24.3
2018-08-07T13:56:50.952Z,24.3
2018-08-07T13:57:40.743Z,24.3
2018-08-07T13:58:31.085Z,24.3
2018-08-07T13:59:20.826Z,24.3
2018-08-07T14:00:10.934Z,24.3
2018-08-07T14:01:01.271Z,24.3
2018-08-07T14:01:50.230Z,24.3
2018-08-07T14:02:40.829Z,24.3
2018-08-07T14:03:31.627Z,24.3
2018-08-07T14:04:20.698Z,24.3
2018-08-07T14:05:11.332Z,24.3
2018-08-07T14:06:01.715Z,24.3
2018-08-07T14:06:50.964Z,24.3
2018-08-07T14:07:41.084Z,24.3
2018-08-07T14:08:31.871Z,24.3
2018-08-07T14:09:21.746Z,24.3
2018-08-07T14:10:12.329Z,24.3
2018-08-07T14:11:01.537Z,24.3
2018-08-07T14:11:51.842Z,24.3
2018-08-07T14:12:41.781Z,24.3
2018-08-07T14:13:31.955Z,24.3
2018-08-07T14:14:22.058Z,24.3
2018-08-07T14:15:11.543Z,24.3
2018-08-07T14:16:02.212Z,24.3
2018-08-07T14:16:52.024Z,24.3
2018-08-07T14:17:42.841Z,24.3
2018-08-07T14:18:32.656Z,24.3
2018-08-07T14:19:22.263Z,24.3
2018-08-07T14:20:12.758Z,24.3
2018-08-07T14:21:01.703Z,24.3
2018-08-07T14:21:52.343Z,24.3
2018-08-07T14:22:42.684Z,24.3
2018-08-07T14:23:33.363Z,24.3
2018-08-07T14:24:22.832Z,24.3
2018-08-07T14:25:12.399Z,24.3
2018-08-07T14:26:01.811Z,24.3
2018-08-07T14:26:52.773Z,24.3
2018-08-07T14:27:42.925Z,24.3
2018-08-07T14:28:33.570Z,24.3
2018-08-07T14:29:22.574Z,24.3
2018-08-07T14:30:12.427Z,24.3
2018-08-07T14:31:03.065Z,24.3
2018-08-07T14:31:53.449Z,24.3
2018-08-07T14:32:43.558Z,24.3
2018-08-07T14:33:32.996Z,24.3
2018-08-07T14:34:23.853Z,24.3